createdAt,value
2019-05-05T00:02:20.901Z,5.53
2019-05-05T00:04:50.987Z,5.12
2019-05-05T00:07:21.238Z,5.00
2019-05-05T00:09:49.673Z,4.85
2019-05-05T00:12:19.902Z,4.78
2019-05-05T00:14:50.280Z,4.40
2019-05-05T00:17:20.342Z,4.17
2019-05-05T00:19:48.763Z,4.95
2019-05-05T00:22:17.286Z,5.10
2019-05-05T00:24:45.871Z,4.60
2019-05-05T00:27:15.070Z,4.87
2019-05-05T00:29:45.361Z,4.85
2019-05-05T00:32:15.259Z,4.92
2019-05-05T00:34:44.611Z,5.40
2019-05-05T00:37:15.227Z,4.40
2019-05-05T00:39:45.173Z,4.85
2019-05-05T00:42:15.411Z,4.28
2019-05-05T00:44:44.778Z,4.95
2019-05-05T00:47:21.023Z,4.50
2019-05-05T00:49:51.100Z,4.62
2019-05-05T00:52:19.518Z,4.60
2019-05-05T00:54:47.978Z,4.47
2019-05-05T00:57:16.446Z,5.03
2019-05-05T00:59:45.340Z,4.67
2019-05-05T01:02:15.643Z,5.25
2019-05-05T01:04:45.733Z,4.75
2019-05-05T01:07:14.351Z,5.05
2019-05-05T01:09:45.125Z,4.62
2019-05-05T01:12:15.062Z,4.50
2019-05-05T01:14:44.741Z,4.75
2019-05-05T01:17:14.735Z,4.70
2019-05-05T01:19:45.387Z,4.67
2019-05-05T01:22:14.383Z,4.95
2019-05-05T01:24:43.182Z,5.17
2019-05-05T01:27:12.194Z,4.87
2019-05-05T01:29:40.632Z,4.55
2019-05-05T01:32:10.935Z,4.53
2019-05-05T01:34:41.060Z,5.10
2019-05-05T01:37:11.107Z,4.97
2019-05-05T01:39:51.473Z,4.62
2019-05-05T01:42:20.057Z,4.70
2019-05-05T01:44:48.483Z,4.78
2019-05-05T01:47:16.981Z,5.22
2019-05-05T01:49:45.565Z,5.22
2019-05-05T01:52:14.874Z,5.40
2019-05-05T01:54:44.595Z,5.05
2019-05-05T01:57:14.831Z,4.87
2019-05-05T01:59:44.772Z,5.65
2019-05-05T02:02:14.676Z,5.40
2019-05-05T02:04:44.776Z,5.25
2019-05-05T02:07:14.545Z,5.03
2019-05-05T02:09:44.917Z,5.70
2019-05-05T02:12:15.227Z,5.12
2019-05-05T02:14:44.471Z,5.92
2019-05-05T02:17:14.395Z,5.40
2019-05-05T02:19:44.390Z,6.28
2019-05-05T02:22:14.667Z,5.72
2019-05-05T02:24:44.482Z,5.92
2019-05-05T02:27:14.576Z,5.55
2019-05-05T02:29:47.484Z,5.97
2019-05-05T02:32:17.850Z,6.15
2019-05-05T02:34:47.920Z,5.87
2019-05-05T02:37:16.354Z,5.30
2019-05-05T02:39:57.254Z,5.80
2019-05-05T02:42:17.025Z,6.20
2019-05-05T02:44:45.980Z,6.05
2019-05-05T02:47:18.004Z,6.15
2019-05-05T02:52:15.702Z,5.67
2019-05-05T02:54:45.161Z,6.55
2019-05-05T02:57:15.105Z,6.00
2019-05-05T02:59:45.901Z,6.28
2019-05-05T03:02:17.056Z,6.50
2019-05-05T03:04:46.555Z,6.22
2019-05-05T03:07:17.719Z,6.45
2019-05-05T03:09:48.549Z,6.20
2019-05-05T03:12:19.780Z,6.05
2019-05-05T03:14:50.155Z,6.37
2019-05-05T03:17:19.338Z,6.35
2019-05-05T03:19:48.902Z,6.33
2019-05-05T03:22:18.326Z,6.55
2019-05-05T03:24:46.775Z,6.83
2019-05-05T03:27:15.374Z,6.60
2019-05-05T03:29:44.348Z,6.45
2019-05-05T03:32:16.035Z,6.60
2019-05-05T03:34:44.590Z,5.95
2019-05-05T03:37:14.657Z,6.55
2019-05-05T03:39:45.297Z,6.25
2019-05-05T03:42:24.615Z,6.33
2019-05-05T03:44:55.305Z,6.42
2019-05-05T03:47:24.144Z,6.47
2019-05-05T03:49:53.559Z,6.20
2019-05-05T03:52:24.452Z,6.37
2019-05-05T03:54:54.246Z,6.45
2019-05-05T03:57:24.598Z,6.80
2019-05-05T03:59:54.767Z,5.87
2019-05-05T04:02:25.338Z,6.20
2019-05-05T04:04:55.403Z,5.85
2019-05-05T04:07:24.306Z,6.17
2019-05-05T04:09:54.244Z,6.78
2019-05-05T04:12:24.143Z,6.80
2019-05-05T04:14:54.573Z,6.62
2019-05-05T04:17:24.881Z,6.28
2019-05-05T04:19:54.952Z,6.80
2019-05-05T04:22:23.812Z,6.58
2019-05-05T04:24:54.135Z,6.00
2019-05-05T04:27:23.892Z,6.78
2019-05-05T04:29:54.325Z,6.30
2019-05-05T04:32:24.430Z,6.50
2019-05-05T04:34:54.324Z,6.17
2019-05-05T04:37:23.899Z,6.85
2019-05-05T04:39:53.728Z,6.42
2019-05-05T04:42:23.965Z,6.65
2019-05-05T04:44:53.800Z,5.95
2019-05-05T04:47:29.775Z,6.42
2019-05-05T04:50:05.718Z,5.87
2019-05-05T04:52:34.588Z,6.17
2019-05-05T04:55:03.937Z,5.75
2019-05-05T04:57:32.493Z,5.95
2019-05-05T05:00:00.998Z,6.15
2019-05-05T05:02:34.244Z,5.75
2019-05-05T05:05:10.524Z,5.67
2019-05-05T05:07:39.135Z,6.20
2019-05-05T05:10:08.105Z,5.55
2019-05-05T05:12:36.569Z,5.85
2019-05-05T05:15:06.132Z,5.22
2019-05-05T05:17:36.253Z,5.20
2019-05-05T05:20:06.941Z,5.45
2019-05-05T05:22:35.310Z,4.85
2019-05-05T05:25:04.582Z,5.05
2019-05-05T05:27:33.645Z,5.15
2019-05-05T05:30:04.544Z,5.12
2019-05-05T05:32:33.979Z,5.15
2019-05-05T05:35:03.900Z,4.50
2019-05-05T05:37:34.160Z,4.53
2019-05-05T05:40:07.036Z,4.53
2019-05-05T05:42:35.473Z,4.12
2019-05-05T05:45:14.591Z,4.50
2019-05-05T05:47:56.915Z,4.05
2019-05-05T05:50:29.403Z,4.50
2019-05-05T05:52:57.810Z,4.10
2019-05-05T05:55:26.400Z,3.87
2019-05-05T05:57:54.821Z,3.70
2019-05-05T06:00:23.813Z,3.20
2019-05-05T06:02:54.496Z,3.20
2019-05-05T06:05:23.838Z,3.17
2019-05-05T06:07:54.469Z,2.65
2019-05-05T06:10:26.652Z,3.17
2019-05-05T06:12:54.687Z,2.98
2019-05-05T06:15:24.471Z,3.25
2019-05-05T06:17:53.944Z,2.85
2019-05-05T06:20:23.890Z,2.62
2019-05-05T06:22:53.605Z,2.80
2019-05-05T06:25:26.220Z,2.72
2019-05-05T06:27:54.018Z,2.27
2019-05-05T06:30:24.388Z,2.65
2019-05-05T06:32:54.363Z,2.80
2019-05-05T06:35:24.432Z,2.37
2019-05-05T06:37:55.622Z,2.62
2019-05-05T06:40:35.411Z,2.73
2019-05-05T06:43:14.403Z,2.42
2019-05-05T06:45:49.911Z,2.70
2019-05-05T06:48:18.329Z,2.22
2019-05-05T06:50:47.006Z,3.05
2019-05-05T06:53:15.452Z,2.30
2019-05-05T06:55:44.445Z,2.85
2019-05-05T06:58:13.672Z,2.17
2019-05-05T07:00:44.114Z,2.10
2019-05-05T07:03:13.902Z,2.20
2019-05-05T07:05:43.797Z,2.10
2019-05-05T07:08:13.800Z,2.40
2019-05-05T07:10:44.264Z,1.98
2019-05-05T07:13:14.038Z,2.00
2019-05-05T07:15:43.901Z,2.00
2019-05-05T07:18:14.277Z,1.80
2019-05-05T07:20:44.067Z,1.70
2019-05-05T07:23:14.478Z,1.30
2019-05-05T07:25:45.797Z,1.50
2019-05-05T07:28:14.817Z,1.57
2019-05-05T07:30:44.266Z,1.50
2019-05-05T07:33:14.975Z,1.57
2019-05-05T07:35:58.675Z,1.30
2019-05-05T07:38:18.696Z,1.55
2019-05-05T07:40:47.422Z,1.30
2019-05-05T07:43:15.909Z,1.40
2019-05-05T07:45:44.643Z,1.65
2019-05-05T07:48:13.916Z,1.80
2019-05-05T07:50:44.969Z,1.80
2019-05-05T07:53:17.566Z,2.02
2019-05-05T07:55:43.806Z,2.15
2019-05-05T07:58:13.895Z,1.85
2019-05-05T08:00:43.653Z,1.90
2019-05-05T08:03:14.387Z,2.77
2019-05-05T08:05:44.208Z,2.00
2019-05-05T08:08:13.919Z,2.22
2019-05-05T08:10:43.874Z,2.67
2019-05-05T08:13:14.284Z,2.70
2019-05-05T08:15:56.272Z,2.37
2019-05-05T08:18:24.345Z,2.12
2019-05-05T08:20:54.800Z,2.95
2019-05-05T08:23:31.783Z,2.72
2019-05-05T08:25:57.584Z,3.58
2019-05-05T08:28:31.547Z,3.80
2019-05-05T08:31:03.808Z,3.52
2019-05-05T08:33:33.636Z,3.65
2019-05-05T08:36:04.546Z,4.10
2019-05-05T08:38:34.721Z,3.45
2019-05-05T08:41:05.797Z,3.62
2019-05-05T08:43:35.044Z,3.70
2019-05-05T08:46:04.926Z,3.80
2019-05-05T08:48:34.293Z,4.22
2019-05-05T08:51:04.915Z,4.30
2019-05-05T08:53:42.582Z,3.83
2019-05-05T08:56:04.712Z,3.47
2019-05-05T08:58:34.424Z,3.98
2019-05-05T09:01:04.491Z,4.15
2019-05-05T09:03:34.513Z,4.10
2019-05-05T09:06:04.719Z,3.33
2019-05-05T09:08:34.698Z,3.75
2019-05-05T09:11:04.809Z,3.80
2019-05-05T09:13:34.040Z,3.72
2019-05-05T09:16:03.749Z,4.45
2019-05-05T09:18:33.914Z,4.90
2019-05-05T09:21:04.406Z,4.37
2019-05-05T09:23:35.180Z,5.03
2019-05-05T09:26:13.781Z,5.00
2019-05-05T09:28:44.671Z,4.95
2019-05-05T09:31:14.707Z,4.22
2019-05-05T09:33:45.176Z,4.65
2019-05-05T09:36:14.237Z,4.15
2019-05-05T09:38:45.025Z,4.05
2019-05-05T09:41:16.085Z,4.08
2019-05-05T09:43:46.520Z,4.55
2019-05-05T09:46:15.771Z,4.65
2019-05-05T09:48:44.952Z,5.40
2019-05-05T09:51:13.951Z,4.50
2019-05-05T09:53:44.838Z,4.37
2019-05-05T09:56:14.685Z,4.70
2019-05-05T09:58:44.285Z,4.70
2019-05-05T10:01:15.132Z,4.78
2019-05-05T10:03:44.730Z,4.58
2019-05-05T10:06:14.216Z,4.83
2019-05-05T10:08:44.631Z,4.47
2019-05-05T10:11:16.371Z,3.85
2019-05-05T10:13:44.366Z,3.80
2019-05-05T10:16:14.418Z,3.72
2019-05-05T10:18:44.869Z,3.50
2019-05-05T10:21:17.472Z,3.90
2019-05-05T10:23:46.407Z,3.50
2019-05-05T10:26:15.869Z,3.30
2019-05-05T10:28:46.626Z,3.62
2019-05-05T10:31:15.927Z,3.42
2019-05-05T10:33:49.867Z,3.50
2019-05-05T10:36:20.895Z,3.90
2019-05-05T10:38:56.150Z,4.10
2019-05-05T10:41:25.893Z,4.20
2019-05-05T10:43:56.005Z,3.58
2019-05-05T10:46:26.488Z,4.28
2019-05-05T10:48:59.628Z,3.70
2019-05-05T10:51:29.573Z,4.30
2019-05-05T10:53:58.599Z,4.60
2019-05-05T10:56:28.044Z,4.20
2019-05-05T10:58:57.540Z,4.08
2019-05-05T11:01:27.846Z,4.15
2019-05-05T11:03:56.943Z,4.10
2019-05-05T11:06:25.776Z,4.35
2019-05-05T11:08:54.684Z,3.87
2019-05-05T11:11:23.912Z,3.77
2019-05-05T11:13:54.263Z,4.37
2019-05-05T11:16:23.274Z,3.50
2019-05-05T11:18:54.057Z,3.40
2019-05-05T11:21:23.687Z,3.43
2019-05-05T11:23:53.913Z,3.22
2019-05-05T11:26:24.527Z,3.47
2019-05-05T11:28:53.876Z,3.50
2019-05-05T11:31:23.961Z,3.87
2019-05-05T11:33:54.371Z,3.35
2019-05-05T11:36:24.646Z,4.33
2019-05-05T11:38:54.584Z,3.98
2019-05-05T11:41:24.282Z,3.35
2019-05-05T11:43:53.555Z,3.30
2019-05-05T11:46:22.060Z,3.40
2019-05-05T11:48:50.499Z,3.37
2019-05-05T11:51:19.285Z,3.85
2019-05-05T11:53:47.902Z,3.27
2019-05-05T11:56:19.019Z,3.72
2019-05-05T11:58:48.695Z,3.40
2019-05-05T12:01:17.211Z,3.95
2019-05-05T12:03:45.603Z,3.47
2019-05-05T12:06:14.812Z,4.20
2019-05-05T12:08:45.748Z,3.85
2019-05-05T12:11:15.119Z,3.90
2019-05-05T12:13:44.940Z,3.75
2019-05-05T12:16:15.129Z,3.30
2019-05-05T12:18:44.875Z,3.85
2019-05-05T12:21:14.118Z,3.67
2019-05-05T12:23:44.455Z,3.20
2019-05-05T12:26:14.475Z,4.00
2019-05-05T12:28:45.086Z,3.75
2019-05-05T12:31:18.082Z,3.70
2019-05-05T12:33:46.709Z,3.95
2019-05-05T12:36:19.233Z,3.77
2019-05-05T12:38:48.026Z,3.85
2019-05-05T12:41:20.770Z,3.40
2019-05-05T12:43:49.950Z,3.22
2019-05-05T12:46:25.921Z,3.25
2019-05-05T12:48:56.151Z,3.85
2019-05-05T12:51:25.496Z,3.55
2019-05-05T12:53:54.286Z,4.65
2019-05-05T12:56:23.826Z,4.60
2019-05-05T12:59:05.386Z,4.20
2019-05-05T13:01:44.119Z,3.87
2019-05-05T17:07:37.892Z,3.27
2019-05-05T17:10:07.057Z,3.33
2019-05-05T17:12:35.531Z,3.12
2019-05-05T17:15:23.952Z,2.90
2019-05-05T17:17:56.902Z,3.00
2019-05-05T17:20:44.147Z,3.05
2019-05-05T17:23:15.530Z,3.02
2019-05-05T17:25:48.271Z,3.13
2019-05-05T17:28:17.647Z,3.20
2019-05-05T17:30:48.585Z,3.17
2019-05-05T17:33:17.773Z,3.40
2019-05-05T17:35:46.947Z,3.55
2019-05-05T17:38:17.000Z,3.22
2019-05-05T17:40:47.120Z,2.80
2019-05-05T17:43:27.872Z,2.77
2019-05-05T17:46:07.000Z,3.25
2019-05-05T17:48:55.613Z,3.25
2019-05-05T17:51:34.698Z,4.12
2019-05-05T17:54:05.128Z,3.42
2019-05-05T17:56:33.718Z,2.83
2019-05-05T17:59:03.475Z,3.20
2019-05-05T18:01:33.582Z,3.22
2019-05-05T18:04:03.996Z,3.52
2019-05-05T18:06:34.388Z,3.30
2019-05-05T18:09:21.072Z,3.50
2019-05-05T18:11:56.958Z,3.52
2019-05-05T18:14:27.383Z,3.10
2019-05-05T18:16:56.238Z,3.85
2019-05-05T18:19:24.862Z,3.75
2019-05-05T18:21:54.767Z,3.30
2019-05-05T18:24:24.261Z,3.25
2019-05-05T18:26:55.928Z,3.20
2019-05-05T18:29:24.401Z,3.17
2019-05-05T18:31:53.561Z,3.12
2019-05-05T18:34:23.570Z,3.42
2019-05-05T18:36:54.430Z,3.25
2019-05-05T18:39:24.729Z,3.62
2019-05-05T18:41:54.887Z,3.20
2019-05-05T18:44:27.940Z,3.25
2019-05-05T18:47:18.370Z,3.70
2019-05-05T18:49:46.479Z,3.55
2019-05-05T18:52:14.924Z,3.80
2019-05-05T18:54:43.741Z,3.75
2019-05-05T18:57:12.398Z,3.95
2019-05-05T18:59:40.835Z,4.10
2019-05-05T19:02:14.408Z,4.15
2019-05-05T19:04:53.741Z,3.60
2019-05-05T19:07:33.706Z,3.27
2019-05-05T19:10:04.056Z,3.27
2019-05-05T19:12:34.529Z,3.95
2019-05-05T19:15:04.409Z,4.35
2019-05-05T19:17:35.191Z,4.20
2019-05-05T19:20:09.429Z,3.55
2019-05-05T19:22:38.871Z,4.20
2019-05-05T19:25:17.049Z,3.60
2019-05-05T19:27:46.757Z,3.92
2019-05-05T19:30:17.520Z,3.95
2019-05-05T19:32:46.591Z,4.35
2019-05-05T19:35:15.886Z,4.45
2019-05-05T19:37:46.143Z,4.22
2019-05-05T19:40:15.609Z,4.17
2019-05-05T19:42:46.321Z,4.17
2019-05-05T19:45:16.181Z,4.00
2019-05-05T19:47:45.099Z,4.37
2019-05-05T19:50:18.340Z,4.72
2019-05-05T19:52:46.932Z,4.42
2019-05-05T19:55:16.022Z,4.30
2019-05-05T19:57:44.722Z,4.05
2019-05-05T20:00:14.580Z,4.22
2019-05-05T20:02:43.912Z,4.17
2019-05-05T20:05:14.422Z,4.00
2019-05-05T20:07:43.910Z,4.47
2019-05-05T20:10:14.699Z,4.80
2019-05-05T20:12:44.877Z,3.33
2019-05-05T20:15:15.391Z,3.45
2019-05-05T20:17:44.492Z,4.00
2019-05-05T20:20:13.955Z,3.60
2019-05-05T20:22:44.443Z,3.67
2019-05-05T20:25:14.125Z,3.98
2019-05-05T20:27:43.063Z,3.67
2019-05-05T20:30:14.069Z,3.80
2019-05-05T20:32:46.584Z,3.60
2019-05-05T20:35:25.584Z,3.50
2019-05-05T20:37:56.018Z,3.90
2019-05-05T20:40:26.093Z,3.90
2019-05-05T20:42:54.522Z,3.47
2019-05-05T20:45:24.623Z,3.50
2019-05-05T20:47:53.657Z,3.58
2019-05-05T20:50:24.729Z,3.98
2019-05-05T20:52:53.721Z,3.77
2019-05-05T20:55:22.137Z,3.75
2019-05-05T20:57:50.559Z,4.25
2019-05-05T21:00:19.381Z,3.87
2019-05-05T21:02:47.797Z,3.77
2019-05-05T21:05:16.277Z,3.85
2019-05-05T21:07:44.823Z,3.52
2019-05-05T21:10:14.373Z,3.80
2019-05-05T21:12:45.641Z,3.17
2019-05-05T21:15:14.121Z,2.95
2019-05-05T21:17:44.800Z,3.30
2019-05-05T21:20:14.506Z,3.60
2019-05-05T21:22:44.886Z,3.60
2019-05-05T21:25:24.041Z,3.40
2019-05-05T21:27:52.450Z,3.47
2019-05-05T21:30:20.892Z,3.75
2019-05-05T21:32:49.332Z,3.67
2019-05-05T21:35:18.155Z,3.92
2019-05-05T21:37:46.608Z,3.58
2019-05-05T21:40:16.074Z,3.52
2019-05-05T21:42:44.669Z,3.92
2019-05-05T21:45:13.256Z,3.55
2019-05-05T21:47:41.679Z,3.60
2019-05-05T21:50:14.314Z,3.77
2019-05-05T21:53:00.636Z,3.50
2019-05-05T21:55:31.190Z,3.30
2019-05-05T21:58:17.805Z,4.28
2019-05-05T22:00:51.099Z,3.72
2019-05-05T22:03:29.923Z,3.87
2019-05-05T22:05:58.861Z,3.90
2019-05-05T22:08:27.290Z,4.30
2019-05-05T22:10:55.714Z,4.17
2019-05-05T22:13:24.160Z,3.52
2019-05-05T22:15:54.583Z,4.03
2019-05-05T22:18:22.971Z,4.15
2019-05-05T22:21:11.165Z,4.12
2019-05-05T22:23:39.683Z,3.77
2019-05-05T22:26:08.112Z,3.47
2019-05-05T22:28:36.554Z,3.95
2019-05-05T22:31:05.002Z,4.15
2019-05-05T22:33:34.177Z,4.03
2019-05-05T22:36:04.421Z,4.47
2019-05-05T22:38:34.020Z,3.72
2019-05-05T22:41:02.494Z,4.12
2019-05-05T22:43:31.888Z,3.95
2019-05-05T22:46:00.372Z,4.37
2019-05-05T22:48:28.790Z,4.30
2019-05-05T22:50:57.250Z,4.87
2019-05-05T22:53:26.040Z,4.35
2019-05-05T22:55:54.471Z,4.35
2019-05-05T22:58:24.020Z,4.35
2019-05-05T23:00:54.724Z,4.67
2019-05-05T23:03:33.707Z,4.92
2019-05-05T23:06:09.810Z,5.00
2019-05-05T23:08:38.226Z,5.00
2019-05-05T23:11:06.953Z,5.12
2019-05-05T23:13:35.387Z,4.70
2019-05-05T23:16:11.698Z,4.85
2019-05-05T23:18:40.571Z,5.12
2019-05-05T23:21:15.621Z,4.67
2019-05-05T23:24:01.046Z,5.20
2019-05-05T23:26:31.107Z,4.90
2019-05-05T23:28:59.558Z,5.47
2019-05-05T23:31:28.194Z,5.28
2019-05-05T23:33:56.842Z,4.87
2019-05-05T23:36:25.255Z,5.08
2019-05-05T23:38:54.888Z,5.20
2019-05-05T23:41:23.992Z,5.00
2019-05-05T23:43:54.315Z,5.50
2019-05-05T23:46:24.131Z,5.15
2019-05-05T23:48:53.724Z,5.03
2019-05-05T23:51:24.273Z,5.22
2019-05-05T23:53:54.857Z,5.53
2019-05-05T23:56:24.078Z,5.30
2019-05-05T23:58:54.948Z,5.30
